sensor_id;sensor_type;location;lat;lon;timestamp;temperature;humidity
15217;DHT22;7711;46.634;14.318;2022-07-17T00:01:48;18.20;99.90
15217;DHT22;7711;46.634;14.318;2022-07-17T00:04:17;18.30;99.90
15217;DHT22;7711;46.634;14.318;2022-07-17T00:06:46;18.30;99.90
15217;DHT22;7711;46.634;14.318;2022-07-17T00:09:13;18.20;99.90
15217;DHT22;7711;46.634;14.318;2022-07-17T00:11:41;18.20;99.90
15217;DHT22;7711;46.634;14.318;2022-07-17T00:14:10;18.30;99.90
15217;DHT22;7711;46.634;14.318;2022-07-17T00:16:39;18.30;99.90
15217;DHT22;7711;46.634;14.318;2022-07-17T00:19:07;18.30;99.90
15217;DHT22;7711;46.634;14.318;2022-07-17T00:21:34;18.20;99.90
15217;DHT22;7711;46.634;14.318;2022-07-17T00:24:02;18.20;99.90
15217;DHT22;7711;46.634;14.318;2022-07-17T00:26:32;18.10;99.90
15217;DHT22;7711;46.634;14.318;2022-07-17T00:29:02;18.30;99.90
15217;DHT22;7711;46.634;14.318;2022-07-17T00:31:29;18.30;99.90
15217;DHT22;7711;46.634;14.318;2022-07-17T00:33:58;18.30;99.90
15217;DHT22;7711;46.634;14.318;2022-07-17T00:36:25;18.20;99.90
15217;DHT22;7711;46.634;14.318;2022-07-17T00:38:56;18.20;99.90
15217;DHT22;7711;46.634;14.318;2022-07-17T00:41:26;18.20;99.90
15217;DHT22;7711;46.634;14.318;2022-07-17T00:44:09;18.10;99.90
15217;DHT22;7711;46.634;14.318;2022-07-17T00:46:38;18.10;99.90
15217;DHT22;7711;46.634;14.318;2022-07-17T00:49:07;18.10;99.90
15217;DHT22;7711;46.634;14.318;2022-07-17T00:51:34;18.10;99.90
15217;DHT22;7711;46.634;14.318;2022-07-17T00:54:02;18.00;99.90
15217;DHT22;7711;46.634;14.318;2022-07-17T00:56:29;17.90;99.90
15217;DHT22;7711;46.634;14.318;2022-07-17T00:58:57;18.00;99.90
15217;DHT22;7711;46.634;14.318;2022-07-17T01:01:26;17.90;99.90
15217;DHT22;7711;46.634;14.318;2022-07-17T01:03:53;17.90;99.90
15217;DHT22;7711;46.634;14.318;2022-07-17T01:06:20;17.90;99.90
15217;DHT22;7711;46.634;14.318;2022-07-17T01:08:47;17.80;99.90
15217;DHT22;7711;46.634;14.318;2022-07-17T01:11:15;17.70;99.90
15217;DHT22;7711;46.634;14.318;2022-07-17T01:13:42;17.70;99.90
15217;DHT22;7711;46.634;14.318;2022-07-17T01:16:10;17.60;99.90
15217;DHT22;7711;46.634;14.318;2022-07-17T01:18:39;17.50;99.90
15217;DHT22;7711;46.634;14.318;2022-07-17T01:21:12;17.40;99.90
15217;DHT22;7711;46.634;14.318;2022-07-17T01:23:39;17.40;99.90
15217;DHT22;7711;46.634;14.318;2022-07-17T01:26:08;17.30;99.90
15217;DHT22;7711;46.634;14.318;2022-07-17T01:28:35;17.30;99.90
15217;DHT22;7711;46.634;14.318;2022-07-17T01:31:02;17.20;99.90
15217;DHT22;7711;46.634;14.318;2022-07-17T01:33:29;17.20;99.90
15217;DHT22;7711;46.634;14.318;2022-07-17T01:35:57;17.20;99.90
15217;DHT22;7711;46.634;14.318;2022-07-17T01:38:25;17.20;99.90
15217;DHT22;7711;46.634;14.318;2022-07-17T01:40:52;17.20;99.90
15217;DHT22;7711;46.634;14.318;2022-07-17T01:43:21;17.20;99.90
15217;DHT22;7711;46.634;14.318;2022-07-17T01:45:48;17.30;99.90
15217;DHT22;7711;46.634;14.318;2022-07-17T01:48:26;17.30;99.90
15217;DHT22;7711;46.634;14.318;2022-07-17T01:50:53;17.30;99.90
15217;DHT22;7711;46.634;14.318;2022-07-17T01:53:21;17.30;99.90
15217;DHT22;7711;46.634;14.318;2022-07-17T01:55:49;17.30;99.90
15217;DHT22;7711;46.634;14.318;2022-07-17T01:58:16;17.30;99.90
15217;DHT22;7711;46.634;14.318;2022-07-17T02:00:44;17.20;99.90
15217;DHT22;7711;46.634;14.318;2022-07-17T02:03:11;17.10;99.90
15217;DHT22;7711;46.634;14.318;2022-07-17T02:05:38;17.10;99.90
15217;DHT22;7711;46.634;14.318;2022-07-17T02:08:06;16.90;99.90
15217;DHT22;7711;46.634;14.318;2022-07-17T02:10:33;16.90;99.90
15217;DHT22;7711;46.634;14.318;2022-07-17T02:13:02;16.90;99.90
15217;DHT22;7711;46.634;14.318;2022-07-17T02:15:29;16.90;99.90
15217;DHT22;7711;46.634;14.318;2022-07-17T02:17:56;16.90;99.90
15217;DHT22;7711;46.634;14.318;2022-07-17T02:20:24;16.80;99.90
15217;DHT22;7711;46.634;14.318;2022-07-17T02:22:54;16.80;99.90
15217;DHT22;7711;46.634;14.318;2022-07-17T02:25:26;16.80;99.90
15217;DHT22;7711;46.634;14.318;2022-07-17T02:27:55;16.80;99.90
15217;DHT22;7711;46.634;14.318;2022-07-17T02:30:24;16.80;99.90
15217;DHT22;7711;46.634;14.318;2022-07-17T02:32:51;16.80;99.90
15217;DHT22;7711;46.634;14.318;2022-07-17T02:35:20;16.80;99.90
15217;DHT22;7711;46.634;14.318;2022-07-17T02:37:47;16.70;99.90
15217;DHT22;7711;46.634;14.318;2022-07-17T02:40:17;16.70;99.90
15217;DHT22;7711;46.634;14.318;2022-07-17T02:42:44;16.70;99.90
15217;DHT22;7711;46.634;14.318;2022-07-17T02:45:13;16.60;99.90
15217;DHT22;7711;46.634;14.318;2022-07-17T02:47:43;16.70;99.90
15217;DHT22;7711;46.634;14.318;2022-07-17T02:50:11;16.60;99.90
15217;DHT22;7711;46.634;14.318;2022-07-17T02:52:38;16.60;99.90
15217;DHT22;7711;46.634;14.318;2022-07-17T02:55:06;16.50;99.90
15217;DHT22;7711;46.634;14.318;2022-07-17T02:57:34;16.50;99.90
15217;DHT22;7711;46.634;14.318;2022-07-17T03:00:04;16.50;99.90
15217;DHT22;7711;46.634;14.318;2022-07-17T03:02:32;16.50;99.90
15217;DHT22;7711;46.634;14.318;2022-07-17T03:05:03;16.50;99.90
15217;DHT22;7711;46.634;14.318;2022-07-17T03:07:33;16.40;99.90
15217;DHT22;7711;46.634;14.318;2022-07-17T03:10:05;16.40;99.90
15217;DHT22;7711;46.634;14.318;2022-07-17T03:12:33;16.40;99.90
15217;DHT22;7711;46.634;14.318;2022-07-17T03:15:00;16.30;99.90
15217;DHT22;7711;46.634;14.318;2022-07-17T03:17:28;16.20;99.90
15217;DHT22;7711;46.634;14.318;2022-07-17T03:20:00;16.10;99.90
15217;DHT22;7711;46.634;14.318;2022-07-17T03:22:28;16.20;99.90
15217;DHT22;7711;46.634;14.318;2022-07-17T03:24:56;16.20;99.90
15217;DHT22;7711;46.634;14.318;2022-07-17T03:27:23;16.10;99.90
15217;DHT22;7711;46.634;14.318;2022-07-17T03:29:52;16.10;99.90
15217;DHT22;7711;46.634;14.318;2022-07-17T03:32:23;16.10;99.90
15217;DHT22;7711;46.634;14.318;2022-07-17T03:34:50;16.10;99.90
15217;DHT22;7711;46.634;14.318;2022-07-17T03:37:20;16.00;99.90
15217;DHT22;7711;46.634;14.318;2022-07-17T03:39:48;15.90;99.90
15217;DHT22;7711;46.634;14.318;2022-07-17T03:42:15;16.00;99.90
15217;DHT22;7711;46.634;14.318;2022-07-17T03:44:43;16.00;99.90
15217;DHT22;7711;46.634;14.318;2022-07-17T03:47:10;16.00;99.90
15217;DHT22;7711;46.634;14.318;2022-07-17T03:49:37;16.00;99.90
15217;DHT22;7711;46.634;14.318;2022-07-17T03:52:05;16.00;99.90
15217;DHT22;7711;46.634;14.318;2022-07-17T03:54:34;16.10;99.90
15217;DHT22;7711;46.634;14.318;2022-07-17T03:57:01;16.20;99.90
15217;DHT22;7711;46.634;14.318;2022-07-17T03:59:28;16.20;99.90
15217;DHT22;7711;46.634;14.318;2022-07-17T04:01:55;16.30;99.90
15217;DHT22;7711;46.634;14.318;2022-07-17T04:04:23;16.30;99.90
15217;DHT22;7711;46.634;14.318;2022-07-17T04:06:50;16.30;99.90
15217;DHT22;7711;46.634;14.318;2022-07-17T04:09:19;16.20;99.90
15217;DHT22;7711;46.634;14.318;2022-07-17T04:11:47;16.20;99.90
15217;DHT22;7711;46.634;14.318;2022-07-17T04:14:14;16.30;99.90
15217;DHT22;7711;46.634;14.318;2022-07-17T04:16:43;16.30;99.90
15217;DHT22;7711;46.634;14.318;2022-07-17T04:19:11;16.40;99.90
15217;DHT22;7711;46.634;14.318;2022-07-17T04:21:40;16.40;99.90
15217;DHT22;7711;46.634;14.318;2022-07-17T04:24:08;16.40;99.90
15217;DHT22;7711;46.634;14.318;2022-07-17T04:26:35;16.50;99.90
15217;DHT22;7711;46.634;14.318;2022-07-17T04:29:06;16.70;99.90
15217;DHT22;7711;46.634;14.318;2022-07-17T04:31:33;16.70;99.90
15217;DHT22;7711;46.634;14.318;2022-07-17T04:34:01;16.70;99.90
15217;DHT22;7711;46.634;14.318;2022-07-17T04:36:28;16.80;99.90
15217;DHT22;7711;46.634;14.318;2022-07-17T04:38:57;16.90;99.90
15217;DHT22;7711;46.634;14.318;2022-07-17T04:41:26;16.90;99.90
15217;DHT22;7711;46.634;14.318;2022-07-17T04:43:53;16.90;99.90
15217;DHT22;7711;46.634;14.318;2022-07-17T04:46:22;16.80;99.90
15217;DHT22;7711;46.634;14.318;2022-07-17T04:48:49;16.70;99.90
15217;DHT22;7711;46.634;14.318;2022-07-17T04:51:16;16.70;99.90
15217;DHT22;7711;46.634;14.318;2022-07-17T04:53:45;16.90;99.90
15217;DHT22;7711;46.634;14.318;2022-07-17T04:56:12;17.00;99.90
15217;DHT22;7711;46.634;14.318;2022-07-17T04:58:39;16.90;99.90
15217;DHT22;7711;46.634;14.318;2022-07-17T05:01:07;17.10;99.90
15217;DHT22;7711;46.634;14.318;2022-07-17T05:03:38;17.30;99.90
15217;DHT22;7711;46.634;14.318;2022-07-17T05:06:06;17.40;99.90
15217;DHT22;7711;46.634;14.318;2022-07-17T05:08:33;17.40;99.90
15217;DHT22;7711;46.634;14.318;2022-07-17T05:11:02;17.50;99.90
15217;DHT22;7711;46.634;14.318;2022-07-17T05:13:30;17.70;99.90
15217;DHT22;7711;46.634;14.318;2022-07-17T05:15:57;17.70;99.90
15217;DHT22;7711;46.634;14.318;2022-07-17T05:18:24;17.80;99.90
15217;DHT22;7711;46.634;14.318;2022-07-17T05:20:54;17.80;99.90
15217;DHT22;7711;46.634;14.318;2022-07-17T05:23:24;17.80;99.90
15217;DHT22;7711;46.634;14.318;2022-07-17T05:25:51;17.90;99.90
15217;DHT22;7711;46.634;14.318;2022-07-17T05:28:20;17.90;99.90
15217;DHT22;7711;46.634;14.318;2022-07-17T05:30:47;18.00;99.90
15217;DHT22;7711;46.634;14.318;2022-07-17T05:33:14;18.00;99.90
15217;DHT22;7711;46.634;14.318;2022-07-17T05:35:41;17.90;99.90
15217;DHT22;7711;46.634;14.318;2022-07-17T05:38:11;18.00;99.90
15217;DHT22;7711;46.634;14.318;2022-07-17T05:40:41;18.00;99.90
15217;DHT22;7711;46.634;14.318;2022-07-17T05:43:11;18.10;99.90
15217;DHT22;7711;46.634;14.318;2022-07-17T05:45:38;18.30;99.90
15217;DHT22;7711;46.634;14.318;2022-07-17T05:48:06;18.40;99.90
15217;DHT22;7711;46.634;14.318;2022-07-17T05:50:33;18.50;99.90
15217;DHT22;7711;46.634;14.318;2022-07-17T05:53:02;18.70;99.90
15217;DHT22;7711;46.634;14.318;2022-07-17T05:55:33;18.80;99.90
15217;DHT22;7711;46.634;14.318;2022-07-17T05:58:00;18.80;99.90
15217;DHT22;7711;46.634;14.318;2022-07-17T06:00:28;18.80;99.90
15217;DHT22;7711;46.634;14.318;2022-07-17T06:02:55;19.00;99.90
15217;DHT22;7711;46.634;14.318;2022-07-17T06:05:25;19.00;99.90
15217;DHT22;7711;46.634;14.318;2022-07-17T06:07:53;19.10;99.90
15217;DHT22;7711;46.634;14.318;2022-07-17T06:10:22;19.10;99.90
15217;DHT22;7711;46.634;14.318;2022-07-17T06:12:51;19.10;99.90
15217;DHT22;7711;46.634;14.318;2022-07-17T06:15:19;19.10;99.90
15217;DHT22;7711;46.634;14.318;2022-07-17T06:17:47;19.20;99.90
15217;DHT22;7711;46.634;14.318;2022-07-17T06:20:15;19.40;99.90
15217;DHT22;7711;46.634;14.318;2022-07-17T06:22:43;19.50;99.90
15217;DHT22;7711;46.634;14.318;2022-07-17T06:25:11;19.70;99.90
15217;DHT22;7711;46.634;14.318;2022-07-17T06:27:39;19.80;99.90
15217;DHT22;7711;46.634;14.318;2022-07-17T06:30:09;19.80;99.90
15217;DHT22;7711;46.634;14.318;2022-07-17T06:32:37;19.90;99.90
15217;DHT22;7711;46.634;14.318;2022-07-17T06:35:08;19.90;99.90
15217;DHT22;7711;46.634;14.318;2022-07-17T06:37:36;19.70;99.90
15217;DHT22;7711;46.634;14.318;2022-07-17T06:40:04;19.90;99.90
15217;DHT22;7711;46.634;14.318;2022-07-17T06:42:31;19.70;99.90
15217;DHT22;7711;46.634;14.318;2022-07-17T06:44:59;19.80;99.90
15217;DHT22;7711;46.634;14.318;2022-07-17T06:47:27;19.70;99.90
15217;DHT22;7711;46.634;14.318;2022-07-17T06:49:57;19.70;99.90
15217;DHT22;7711;46.634;14.318;2022-07-17T06:52:27;19.70;99.90
15217;DHT22;7711;46.634;14.318;2022-07-17T06:54:54;19.80;99.90
15217;DHT22;7711;46.634;14.318;2022-07-17T06:57:21;19.80;99.90
15217;DHT22;7711;46.634;14.318;2022-07-17T06:59:51;20.10;99.90
15217;DHT22;7711;46.634;14.318;2022-07-17T07:02:18;20.10;99.90
15217;DHT22;7711;46.634;14.318;2022-07-17T07:04:47;20.20;99.90
15217;DHT22;7711;46.634;14.318;2022-07-17T07:07:14;20.40;99.90
15217;DHT22;7711;46.634;14.318;2022-07-17T07:09:43;20.70;99.90
15217;DHT22;7711;46.634;14.318;2022-07-17T07:12:10;20.70;99.90
15217;DHT22;7711;46.634;14.318;2022-07-17T07:14:39;20.80;99.90
15217;DHT22;7711;46.634;14.318;2022-07-17T07:17:06;21.00;99.90
15217;DHT22;7711;46.634;14.318;2022-07-17T07:19:33;21.00;99.90
15217;DHT22;7711;46.634;14.318;2022-07-17T07:22:04;21.10;99.90
15217;DHT22;7711;46.634;14.318;2022-07-17T07:24:31;20.90;99.90
15217;DHT22;7711;46.634;14.318;2022-07-17T07:26:58;20.90;99.90
15217;DHT22;7711;46.634;14.318;2022-07-17T07:29:26;20.80;99.90
15217;DHT22;7711;46.634;14.318;2022-07-17T07:31:56;20.90;99.90
15217;DHT22;7711;46.634;14.318;2022-07-17T07:34:24;20.80;99.90
15217;DHT22;7711;46.634;14.318;2022-07-17T07:36:52;20.90;99.90
15217;DHT22;7711;46.634;14.318;2022-07-17T07:39:22;20.90;99.90
15217;DHT22;7711;46.634;14.318;2022-07-17T07:41:49;21.00;99.90
15217;DHT22;7711;46.634;14.318;2022-07-17T07:44:17;21.10;99.90
15217;DHT22;7711;46.634;14.318;2022-07-17T07:46:44;21.20;99.90
15217;DHT22;7711;46.634;14.318;2022-07-17T07:49:12;21.20;99.90
15217;DHT22;7711;46.634;14.318;2022-07-17T07:51:40;21.40;99.90
15217;DHT22;7711;46.634;14.318;2022-07-17T07:54:08;21.40;99.90
15217;DHT22;7711;46.634;14.318;2022-07-17T07:56:36;21.50;99.90
15217;DHT22;7711;46.634;14.318;2022-07-17T07:59:06;21.70;99.90
15217;DHT22;7711;46.634;14.318;2022-07-17T08:01:36;21.80;99.90
15217;DHT22;7711;46.634;14.318;2022-07-17T08:04:04;21.90;99.90
15217;DHT22;7711;46.634;14.318;2022-07-17T08:06:31;22.10;99.90
15217;DHT22;7711;46.634;14.318;2022-07-17T08:09:01;22.20;99.90
15217;DHT22;7711;46.634;14.318;2022-07-17T08:11:28;22.30;99.90
15217;DHT22;7711;46.634;14.318;2022-07-17T08:13:59;22.60;99.90
15217;DHT22;7711;46.634;14.318;2022-07-17T08:16:27;22.80;99.90
15217;DHT22;7711;46.634;14.318;2022-07-17T08:18:55;23.20;99.90
15217;DHT22;7711;46.634;14.318;2022-07-17T08:21:23;23.50;99.90
15217;DHT22;7711;46.634;14.318;2022-07-17T08:23:51;23.60;99.90
15217;DHT22;7711;46.634;14.318;2022-07-17T08:26:19;23.20;99.90
15217;DHT22;7711;46.634;14.318;2022-07-17T08:28:46;23.40;99.90
15217;DHT22;7711;46.634;14.318;2022-07-17T08:31:15;23.60;99.90
15217;DHT22;7711;46.634;14.318;2022-07-17T08:33:42;23.60;99.90
15217;DHT22;7711;46.634;14.318;2022-07-17T08:36:12;23.70;99.90
15217;DHT22;7711;46.634;14.318;2022-07-17T08:38:39;23.90;99.90
15217;DHT22;7711;46.634;14.318;2022-07-17T08:41:07;23.90;99.90
15217;DHT22;7711;46.634;14.318;2022-07-17T08:43:36;23.90;99.90
15217;DHT22;7711;46.634;14.318;2022-07-17T08:46:03;23.80;99.90
15217;DHT22;7711;46.634;14.318;2022-07-17T08:48:34;24.00;99.90
15217;DHT22;7711;46.634;14.318;2022-07-17T08:51:03;24.30;99.90
15217;DHT22;7711;46.634;14.318;2022-07-17T08:53:30;24.30;99.90
15217;DHT22;7711;46.634;14.318;2022-07-17T08:55:58;24.60;99.90
15217;DHT22;7711;46.634;14.318;2022-07-17T08:58:26;24.30;99.90
15217;DHT22;7711;46.634;14.318;2022-07-17T09:00:56;24.20;99.90
15217;DHT22;7711;46.634;14.318;2022-07-17T09:03:24;24.20;99.90
15217;DHT22;7711;46.634;14.318;2022-07-17T09:05:53;24.30;99.90
15217;DHT22;7711;46.634;14.318;2022-07-17T09:08:22;24.30;99.90
15217;DHT22;7711;46.634;14.318;2022-07-17T09:10:52;24.60;99.90
15217;DHT22;7711;46.634;14.318;2022-07-17T09:13:25;25.00;99.90
15217;DHT22;7711;46.634;14.318;2022-07-17T09:15:57;25.70;99.90
15217;DHT22;7711;46.634;14.318;2022-07-17T09:18:24;25.80;99.90
15217;DHT22;7711;46.634;14.318;2022-07-17T09:20:57;25.80;99.90
15217;DHT22;7711;46.634;14.318;2022-07-17T09:23:26;25.80;99.90
15217;DHT22;7711;46.634;14.318;2022-07-17T09:25:56;25.70;99.90
15217;DHT22;7711;46.634;14.318;2022-07-17T09:28:23;25.60;99.90
15217;DHT22;7711;46.634;14.318;2022-07-17T09:30:52;25.70;99.90
15217;DHT22;7711;46.634;14.318;2022-07-17T09:33:21;25.20;99.90
15217;DHT22;7711;46.634;14.318;2022-07-17T09:35:53;25.20;99.90
15217;DHT22;7711;46.634;14.318;2022-07-17T09:38:29;25.00;99.90
15217;DHT22;7711;46.634;14.318;2022-07-17T09:41:07;24.70;99.90
15217;DHT22;7711;46.634;14.318;2022-07-17T09:43:44;24.90;99.90
15217;DHT22;7711;46.634;14.318;2022-07-17T09:46:13;25.00;99.90
15217;DHT22;7711;46.634;14.318;2022-07-17T09:48:43;25.10;99.90
15217;DHT22;7711;46.634;14.318;2022-07-17T09:51:18;24.80;99.90
15217;DHT22;7711;46.634;14.318;2022-07-17T09:53:50;24.80;99.90
15217;DHT22;7711;46.634;14.318;2022-07-17T09:56:19;25.00;99.90
15217;DHT22;7711;46.634;14.318;2022-07-17T09:58:48;25.10;99.90
15217;DHT22;7711;46.634;14.318;2022-07-17T10:01:18;25.40;99.90
15217;DHT22;7711;46.634;14.318;2022-07-17T10:03:46;24.90;99.90
15217;DHT22;7711;46.634;14.318;2022-07-17T10:06:17;25.00;99.90
15217;DHT22;7711;46.634;14.318;2022-07-17T10:08:44;25.30;99.90
15217;DHT22;7711;46.634;14.318;2022-07-17T10:11:13;25.10;99.90
15217;DHT22;7711;46.634;14.318;2022-07-17T10:13:43;25.00;99.90
15217;DHT22;7711;46.634;14.318;2022-07-17T10:16:11;25.30;99.90
15217;DHT22;7711;46.634;14.318;2022-07-17T10:18:41;25.40;99.90
15217;DHT22;7711;46.634;14.318;2022-07-17T10:21:13;25.70;99.90
15217;DHT22;7711;46.634;14.318;2022-07-17T10:23:42;25.70;99.90
15217;DHT22;7711;46.634;14.318;2022-07-17T10:26:10;25.80;99.90
15217;DHT22;7711;46.634;14.318;2022-07-17T10:28:42;26.00;99.90
15217;DHT22;7711;46.634;14.318;2022-07-17T10:33:59;26.30;99.90
15217;DHT22;7711;46.634;14.318;2022-07-17T10:36:34;26.50;99.90
15217;DHT22;7711;46.634;14.318;2022-07-17T10:39:13;26.10;99.90
15217;DHT22;7711;46.634;14.318;2022-07-17T10:41:41;26.40;99.90
15217;DHT22;7711;46.634;14.318;2022-07-17T10:44:08;26.40;99.90
15217;DHT22;7711;46.634;14.318;2022-07-17T10:46:35;26.40;99.90
15217;DHT22;7711;46.634;14.318;2022-07-17T10:49:03;26.50;99.90
15217;DHT22;7711;46.634;14.318;2022-07-17T10:51:30;26.70;99.90
15217;DHT22;7711;46.634;14.318;2022-07-17T10:54:01;26.60;99.90
15217;DHT22;7711;46.634;14.318;2022-07-17T10:56:29;26.80;99.90
15217;DHT22;7711;46.634;14.318;2022-07-17T10:59:02;27.00;99.90
15217;DHT22;7711;46.634;14.318;2022-07-17T11:01:32;27.00;99.90
15217;DHT22;7711;46.634;14.318;2022-07-17T11:04:00;26.20;99.90
15217;DHT22;7711;46.634;14.318;2022-07-17T11:06:30;26.20;99.90
15217;DHT22;7711;46.634;14.318;2022-07-17T11:08:59;26.60;99.90
15217;DHT22;7711;46.634;14.318;2022-07-17T11:11:37;26.80;99.90
15217;DHT22;7711;46.634;14.318;2022-07-17T11:14:10;26.90;99.90
15217;DHT22;7711;46.634;14.318;2022-07-17T11:16:44;26.90;99.90
15217;DHT22;7711;46.634;14.318;2022-07-17T11:19:12;27.20;99.90
15217;DHT22;7711;46.634;14.318;2022-07-17T11:21:47;27.40;99.90
15217;DHT22;7711;46.634;14.318;2022-07-17T11:24:15;27.50;99.90
15217;DHT22;7711;46.634;14.318;2022-07-17T11:26:49;27.50;99.80
15217;DHT22;7711;46.634;14.318;2022-07-17T11:29:16;26.80;99.90
15217;DHT22;7711;46.634;14.318;2022-07-17T11:31:43;27.10;99.90
15217;DHT22;7711;46.634;14.318;2022-07-17T11:34:11;27.40;99.90
15217;DHT22;7711;46.634;14.318;2022-07-17T11:36:41;27.50;99.90
15217;DHT22;7711;46.634;14.318;2022-07-17T11:39:14;27.50;99.90
15217;DHT22;7711;46.634;14.318;2022-07-17T11:41:47;27.70;99.90
15217;DHT22;7711;46.634;14.318;2022-07-17T11:44:18;27.30;99.40
15217;DHT22;7711;46.634;14.318;2022-07-17T11:46:47;27.40;99.90
15217;DHT22;7711;46.634;14.318;2022-07-17T11:49:23;26.90;99.90
15217;DHT22;7711;46.634;14.318;2022-07-17T11:51:54;27.10;99.90
15217;DHT22;7711;46.634;14.318;2022-07-17T11:54:22;27.70;99.90
15217;DHT22;7711;46.634;14.318;2022-07-17T11:56:54;27.90;99.90
15217;DHT22;7711;46.634;14.318;2022-07-17T11:59:26;27.70;99.90
15217;DHT22;7711;46.634;14.318;2022-07-17T12:01:54;27.90;99.90
15217;DHT22;7711;46.634;14.318;2022-07-17T12:04:22;28.10;99.90
15217;DHT22;7711;46.634;14.318;2022-07-17T12:07:00;28.70;99.90
15217;DHT22;7711;46.634;14.318;2022-07-17T12:09:31;28.10;98.50
15217;DHT22;7711;46.634;14.318;2022-07-17T12:12:03;28.30;99.90
15217;DHT22;7711;46.634;14.318;2022-07-17T12:14:32;28.40;99.90
15217;DHT22;7711;46.634;14.318;2022-07-17T12:17:03;28.40;98.40
15217;DHT22;7711;46.634;14.318;2022-07-17T12:19:33;28.60;98.60
15217;DHT22;7711;46.634;14.318;2022-07-17T12:22:02;28.50;97.90
15217;DHT22;7711;46.634;14.318;2022-07-17T12:24:31;28.80;98.80
15217;DHT22;7711;46.634;14.318;2022-07-17T12:27:03;28.60;99.00
15217;DHT22;7711;46.634;14.318;2022-07-17T12:29:31;28.20;97.60
15217;DHT22;7711;46.634;14.318;2022-07-17T12:32:06;27.80;97.80
15217;DHT22;7711;46.634;14.318;2022-07-17T12:34:37;27.60;98.70
15217;DHT22;7711;46.634;14.318;2022-07-17T12:37:10;27.40;98.60
15217;DHT22;7711;46.634;14.318;2022-07-17T12:39:38;28.20;99.00
15217;DHT22;7711;46.634;14.318;2022-07-17T12:42:07;28.60;98.70
15217;DHT22;7711;46.634;14.318;2022-07-17T12:44:35;28.70;99.60
15217;DHT22;7711;46.634;14.318;2022-07-17T12:47:03;28.50;97.00
15217;DHT22;7711;46.634;14.318;2022-07-17T12:49:30;28.60;97.40
15217;DHT22;7711;46.634;14.318;2022-07-17T12:51:58;29.30;98.30
15217;DHT22;7711;46.634;14.318;2022-07-17T12:54:25;28.60;97.40
15217;DHT22;7711;46.634;14.318;2022-07-17T12:56:53;29.10;97.80
15217;DHT22;7711;46.634;14.318;2022-07-17T12:59:23;29.20;96.50
15217;DHT22;7711;46.634;14.318;2022-07-17T13:01:52;28.30;96.10
15217;DHT22;7711;46.634;14.318;2022-07-17T13:04:20;28.00;96.40
15217;DHT22;7711;46.634;14.318;2022-07-17T13:06:49;28.40;96.90
15217;DHT22;7711;46.634;14.318;2022-07-17T13:09:16;28.90;95.90
15217;DHT22;7711;46.634;14.318;2022-07-17T13:11:45;29.30;95.90
15217;DHT22;7711;46.634;14.318;2022-07-17T13:14:17;28.90;94.50
15217;DHT22;7711;46.634;14.318;2022-07-17T13:16:47;29.40;95.60
15217;DHT22;7711;46.634;14.318;2022-07-17T13:19:19;29.90;94.80
15217;DHT22;7711;46.634;14.318;2022-07-17T13:21:52;30.70;95.60
15217;DHT22;7711;46.634;14.318;2022-07-17T13:24:21;31.10;94.20
15217;DHT22;7711;46.634;14.318;2022-07-17T13:26:48;31.70;94.20
15217;DHT22;7711;46.634;14.318;2022-07-17T13:29:16;31.60;92.00
15217;DHT22;7711;46.634;14.318;2022-07-17T13:31:47;31.90;92.70
15217;DHT22;7711;46.634;14.318;2022-07-17T13:34:14;32.50;91.60
15217;DHT22;7711;46.634;14.318;2022-07-17T13:36:41;31.90;90.60
15217;DHT22;7711;46.634;14.318;2022-07-17T13:39:10;32.30;90.90
15217;DHT22;7711;46.634;14.318;2022-07-17T13:41:37;32.70;87.90
15217;DHT22;7711;46.634;14.318;2022-07-17T13:44:05;32.70;87.50
15217;DHT22;7711;46.634;14.318;2022-07-17T13:46:34;32.80;87.60
15217;DHT22;7711;46.634;14.318;2022-07-17T13:49:03;33.40;83.80
15217;DHT22;7711;46.634;14.318;2022-07-17T13:51:33;33.00;85.40
15217;DHT22;7711;46.634;14.318;2022-07-17T13:54:01;34.10;83.60
15217;DHT22;7711;46.634;14.318;2022-07-17T13:56:30;34.60;81.10
15217;DHT22;7711;46.634;14.318;2022-07-17T13:58:59;34.80;79.60
15217;DHT22;7711;46.634;14.318;2022-07-17T14:01:27;35.20;77.60
15217;DHT22;7711;46.634;14.318;2022-07-17T14:03:54;35.40;76.70
15217;DHT22;7711;46.634;14.318;2022-07-17T14:06:23;35.50;75.40
15217;DHT22;7711;46.634;14.318;2022-07-17T14:08:53;35.10;71.90
15217;DHT22;7711;46.634;14.318;2022-07-17T14:11:20;35.50;71.00
15217;DHT22;7711;46.634;14.318;2022-07-17T14:13:48;35.70;71.80
15217;DHT22;7711;46.634;14.318;2022-07-17T14:16:18;35.30;67.70
15217;DHT22;7711;46.634;14.318;2022-07-17T14:18:45;34.50;67.90
15217;DHT22;7711;46.634;14.318;2022-07-17T14:21:29;35.20;68.50
15217;DHT22;7711;46.634;14.318;2022-07-17T14:23:57;35.00;68.60
15217;DHT22;7711;46.634;14.318;2022-07-17T14:26:24;35.40;69.40
15217;DHT22;7711;46.634;14.318;2022-07-17T14:28:52;35.20;67.90
15217;DHT22;7711;46.634;14.318;2022-07-17T14:31:24;34.70;66.10
15217;DHT22;7711;46.634;14.318;2022-07-17T14:33:51;35.10;65.80
15217;DHT22;7711;46.634;14.318;2022-07-17T14:36:20;35.20;64.60
15217;DHT22;7711;46.634;14.318;2022-07-17T14:38:50;35.30;67.00
15217;DHT22;7711;46.634;14.318;2022-07-17T14:41:21;35.80;65.20
15217;DHT22;7711;46.634;14.318;2022-07-17T14:43:50;35.90;63.90
15217;DHT22;7711;46.634;14.318;2022-07-17T14:46:19;36.10;62.10
15217;DHT22;7711;46.634;14.318;2022-07-17T14:48:47;35.90;61.70
15217;DHT22;7711;46.634;14.318;2022-07-17T14:51:14;36.10;61.30
15217;DHT22;7711;46.634;14.318;2022-07-17T14:53:41;36.00;59.20
15217;DHT22;7711;46.634;14.318;2022-07-17T14:56:10;36.00;60.90
15217;DHT22;7711;46.634;14.318;2022-07-17T14:58:37;36.00;59.20
15217;DHT22;7711;46.634;14.318;2022-07-17T15:01:04;35.70;59.20
15217;DHT22;7711;46.634;14.318;2022-07-17T15:03:32;35.20;60.10
15217;DHT22;7711;46.634;14.318;2022-07-17T15:06:00;35.30;60.10
15217;DHT22;7711;46.634;14.318;2022-07-17T15:08:29;35.50;59.20
15217;DHT22;7711;46.634;14.318;2022-07-17T15:10:56;35.70;60.50
15217;DHT22;7711;46.634;14.318;2022-07-17T15:13:25;35.50;58.90
15217;DHT22;7711;46.634;14.318;2022-07-17T15:15:53;35.60;59.20
15217;DHT22;7711;46.634;14.318;2022-07-17T15:18:21;36.00;57.80
15217;DHT22;7711;46.634;14.318;2022-07-17T15:20:48;35.70;57.50
15217;DHT22;7711;46.634;14.318;2022-07-17T15:23:17;35.60;57.30
15217;DHT22;7711;46.634;14.318;2022-07-17T15:25:44;35.90;57.40
15217;DHT22;7711;46.634;14.318;2022-07-17T15:28:13;35.50;58.10
15217;DHT22;7711;46.634;14.318;2022-07-17T15:30:42;35.00;58.30
15217;DHT22;7711;46.634;14.318;2022-07-17T15:33:09;35.20;58.10
15217;DHT22;7711;46.634;14.318;2022-07-17T15:35:39;35.70;57.60
15217;DHT22;7711;46.634;14.318;2022-07-17T15:38:06;35.60;57.30
15217;DHT22;7711;46.634;14.318;2022-07-17T15:40:35;35.30;57.00
15217;DHT22;7711;46.634;14.318;2022-07-17T15:43:02;35.10;56.90